sensor_id;sensor_type;location;lat;lon;timestamp;pressure;altitude;pressure_sealevel;temperature;humidity
72802;BME280;61891;55.818;37.084;2022-12-18T00:01:56;99072.66;;;-2.54;68.24
72802;BME280;61891;55.818;37.084;2022-12-18T00:04:24;99062.00;;;-2.64;68.05
72802;BME280;61891;55.818;37.084;2022-12-18T00:06:51;99071.25;;;-2.60;68.06
72802;BME280;61891;55.818;37.084;2022-12-18T00:09:17;99031.03;;;-2.81;68.23
72802;BME280;61891;55.818;37.084;2022-12-18T00:11:43;99047.63;;;-2.69;68.07
72802;BME280;61891;55.818;37.084;2022-12-18T00:14:09;99059.22;;;-2.61;68.15
72802;BME280;61891;55.818;37.084;2022-12-18T00:16:36;99042.53;;;-2.71;68.40
72802;BME280;61891;55.818;37.084;2022-12-18T00:19:03;99058.13;;;-2.56;68.25
72802;BME280;61891;55.818;37.084;2022-12-18T00:21:30;99051.16;;;-2.56;68.35
72802;BME280;61891;55.818;37.084;2022-12-18T00:23:57;99045.16;;;-2.56;68.18
72802;BME280;61891;55.818;37.084;2022-12-18T00:26:24;99037.34;;;-2.56;68.27
72802;BME280;61891;55.818;37.084;2022-12-18T00:28:58;98980.09;;;-2.96;67.89
72802;BME280;61891;55.818;37.084;2022-12-18T00:31:24;99041.16;;;-2.62;68.01
72802;BME280;61891;55.818;37.084;2022-12-18T00:33:56;99045.78;;;-2.53;68.14
72802;BME280;61891;55.818;37.084;2022-12-18T00:36:24;99044.22;;;-2.55;68.04
72802;BME280;61891;55.818;37.084;2022-12-18T00:38:53;98970.84;;;-3.00;67.79
72802;BME280;61891;55.818;37.084;2022-12-18T00:41:19;99011.59;;;-2.74;67.96
72802;BME280;61891;55.818;37.084;2022-12-18T00:44:05;99012.91;;;-2.67;68.17
72802;BME280;61891;55.818;37.084;2022-12-18T00:46:31;99021.06;;;-2.58;67.93
72802;BME280;61891;55.818;37.084;2022-12-18T00:48:57;98995.84;;;-2.71;67.78
72802;BME280;61891;55.818;37.084;2022-12-18T00:51:24;99015.88;;;-2.58;67.91
72802;BME280;61891;55.818;37.084;2022-12-18T00:53:50;99009.09;;;-2.61;67.94
72802;BME280;61891;55.818;37.084;2022-12-18T00:56:16;99005.66;;;-2.62;67.89
72802;BME280;61891;55.818;37.084;2022-12-18T00:58:42;99001.31;;;-2.61;67.83
72802;BME280;61891;55.818;37.084;2022-12-18T01:01:07;99000.66;;;-2.65;68.06
72802;BME280;61891;55.818;37.084;2022-12-18T01:03:34;98979.91;;;-2.79;67.71
72802;BME280;61891;55.818;37.084;2022-12-18T01:06:09;99005.84;;;-2.65;67.84
72802;BME280;61891;55.818;37.084;2022-12-18T01:08:35;98984.84;;;-2.74;67.69
72802;BME280;61891;55.818;37.084;2022-12-18T01:11:07;98957.13;;;-2.88;67.82
72802;BME280;61891;55.818;37.084;2022-12-18T01:13:33;98989.00;;;-2.72;67.90
72802;BME280;61891;55.818;37.084;2022-12-18T01:15:59;98994.09;;;-2.70;67.87
72802;BME280;61891;55.818;37.084;2022-12-18T01:18:25;98940.09;;;-3.06;67.68
72802;BME280;61891;55.818;37.084;2022-12-18T01:20:50;98990.28;;;-2.79;67.89
72802;BME280;61891;55.818;37.084;2022-12-18T01:23:16;98994.56;;;-2.78;67.93
72802;BME280;61891;55.818;37.084;2022-12-18T01:25:42;98992.69;;;-2.76;67.90
72802;BME280;61891;55.818;37.084;2022-12-18T01:28:09;98974.19;;;-2.84;67.93
72802;BME280;61891;55.818;37.084;2022-12-18T01:30:35;98972.16;;;-2.79;67.89
72802;BME280;61891;55.818;37.084;2022-12-18T01:33:00;98976.59;;;-2.81;67.90
72802;BME280;61891;55.818;37.084;2022-12-18T01:35:26;98993.44;;;-2.74;67.88
72802;BME280;61891;55.818;37.084;2022-12-18T01:37:56;98930.00;;;-3.11;67.73
72802;BME280;61891;55.818;37.084;2022-12-18T01:40:22;98990.84;;;-2.74;68.05
72802;BME280;61891;55.818;37.084;2022-12-18T01:42:54;98937.22;;;-3.02;67.82
72802;BME280;61891;55.818;37.084;2022-12-18T01:45:29;98983.81;;;-2.72;67.79
72802;BME280;61891;55.818;37.084;2022-12-18T01:48:07;98952.88;;;-2.89;67.92
72802;BME280;61891;55.818;37.084;2022-12-18T01:50:38;98968.63;;;-2.78;67.72
72802;BME280;61891;55.818;37.084;2022-12-18T01:53:10;98982.97;;;-2.72;67.88
72802;BME280;61891;55.818;37.084;2022-12-18T01:55:40;98822.25;;;-3.72;67.77
72802;BME280;61891;55.818;37.084;2022-12-18T01:58:09;98984.84;;;-2.74;67.76
72802;BME280;61891;55.818;37.084;2022-12-18T02:00:35;98990.13;;;-2.76;67.87
72802;BME280;61891;55.818;37.084;2022-12-18T02:03:00;98993.72;;;-2.78;67.82
72802;BME280;61891;55.818;37.084;2022-12-18T02:06:03;98992.97;;;-2.80;67.86
72802;BME280;61891;55.818;37.084;2022-12-18T02:08:43;98992.97;;;-2.80;67.93
72802;BME280;61891;55.818;37.084;2022-12-18T02:14:00;98998.16;;;-2.80;67.74
72802;BME280;61891;55.818;37.084;2022-12-18T02:16:39;98993.72;;;-2.78;67.84
72802;BME280;61891;55.818;37.084;2022-12-18T02:22:14;98995.28;;;-2.90;67.92
72802;BME280;61891;55.818;37.084;2022-12-18T02:27:28;98971.75;;;-3.01;67.81
72802;BME280;61891;55.818;37.084;2022-12-18T02:29:57;98962.69;;;-3.08;67.88
72802;BME280;61891;55.818;37.084;2022-12-18T02:32:47;98927.13;;;-3.35;67.79
72802;BME280;61891;55.818;37.084;2022-12-18T02:35:19;98908.78;;;-3.46;67.66
72802;BME280;61891;55.818;37.084;2022-12-18T02:37:53;99001.13;;;-2.86;67.80
72802;BME280;61891;55.818;37.084;2022-12-18T02:40:21;99000.28;;;-2.87;67.69
72802;BME280;61891;55.818;37.084;2022-12-18T02:42:48;99009.94;;;-2.89;67.84
72802;BME280;61891;55.818;37.084;2022-12-18T02:45:16;99008.16;;;-2.88;67.79
72802;BME280;61891;55.818;37.084;2022-12-18T02:47:46;98896.66;;;-3.60;67.49
72802;BME280;61891;55.818;37.084;2022-12-18T02:58:20;98923.97;;;-3.40;67.87
72802;BME280;61891;55.818;37.084;2022-12-18T03:01:30;98980.75;;;-3.07;67.37
72802;BME280;61891;55.818;37.084;2022-12-18T03:04:03;98991.97;;;-2.92;67.59
72802;BME280;61891;55.818;37.084;2022-12-18T03:06:35;98991.22;;;-2.94;67.51
72802;BME280;61891;55.818;37.084;2022-12-18T03:09:10;98917.94;;;-3.40;67.29
72802;BME280;61891;55.818;37.084;2022-12-18T03:11:40;98939.31;;;-3.37;67.57
72802;BME280;61891;55.818;37.084;2022-12-18T03:14:29;98956.00;;;-3.27;67.76
72802;BME280;61891;55.818;37.084;2022-12-18T03:17:01;98969.34;;;-3.18;67.83
72802;BME280;61891;55.818;37.084;2022-12-18T03:19:31;98967.94;;;-3.24;67.69
72802;BME280;61891;55.818;37.084;2022-12-18T03:22:00;98984.72;;;-3.15;67.71
72802;BME280;61891;55.818;37.084;2022-12-18T03:24:35;98962.09;;;-3.28;67.70
72802;BME280;61891;55.818;37.084;2022-12-18T03:27:08;98959.59;;;-3.29;67.58
72802;BME280;61891;55.818;37.084;2022-12-18T03:29:42;98997.56;;;-3.14;67.61
72802;BME280;61891;55.818;37.084;2022-12-18T03:32:26;98945.31;;;-3.50;67.57
72802;BME280;61891;55.818;37.084;2022-12-18T03:34:58;99003.88;;;-3.18;67.67
72802;BME280;61891;55.818;37.084;2022-12-18T03:37:31;98971.06;;;-3.33;67.67
72802;BME280;61891;55.818;37.084;2022-12-18T03:39:58;98984.63;;;-3.14;67.77
72802;BME280;61891;55.818;37.084;2022-12-18T03:43:02;98900.59;;;-3.68;67.70
72802;BME280;61891;55.818;37.084;2022-12-18T03:45:34;98999.16;;;-3.11;67.77
72802;BME280;61891;55.818;37.084;2022-12-18T03:55:53;98999.13;;;-3.26;67.63
72802;BME280;61891;55.818;37.084;2022-12-18T03:58:23;98986.53;;;-3.32;67.60
72802;BME280;61891;55.818;37.084;2022-12-18T04:01:00;99001.19;;;-3.16;67.74
72802;BME280;61891;55.818;37.084;2022-12-18T04:03:29;98935.75;;;-3.64;67.60
72802;BME280;61891;55.818;37.084;2022-12-18T04:05:59;98992.81;;;-3.36;67.72
72802;BME280;61891;55.818;37.084;2022-12-18T04:08:27;98966.41;;;-3.57;67.39
72802;BME280;61891;55.818;37.084;2022-12-18T04:11:02;99030.50;;;-3.30;67.61
72802;BME280;61891;55.818;37.084;2022-12-18T04:13:34;98977.53;;;-3.70;67.40
72802;BME280;61891;55.818;37.084;2022-12-18T04:16:02;98990.31;;;-3.67;67.56
72802;BME280;61891;55.818;37.084;2022-12-18T04:18:28;99012.28;;;-3.59;67.66
72802;BME280;61891;55.818;37.084;2022-12-18T04:20:54;99008.84;;;-3.59;67.72
72802;BME280;61891;55.818;37.084;2022-12-18T04:23:21;99062.69;;;-3.34;67.72
72802;BME280;61891;55.818;37.084;2022-12-18T04:25:47;98983.31;;;-3.81;67.59
72802;BME280;61891;55.818;37.084;2022-12-18T04:28:20;99041.28;;;-3.38;67.56
72802;BME280;61891;55.818;37.084;2022-12-18T04:30:46;99047.31;;;-3.37;67.29
72802;BME280;61891;55.818;37.084;2022-12-18T04:33:16;99013.38;;;-3.63;67.53
72802;BME280;61891;55.818;37.084;2022-12-18T04:35:42;99045.16;;;-3.45;67.60
72802;BME280;61891;55.818;37.084;2022-12-18T04:38:08;99047.00;;;-3.47;67.82
72802;BME280;61891;55.818;37.084;2022-12-18T04:40:36;99021.78;;;-3.59;67.72
72802;BME280;61891;55.818;37.084;2022-12-18T04:43:10;99046.25;;;-3.49;67.87
72802;BME280;61891;55.818;37.084;2022-12-18T04:45:35;99051.44;;;-3.49;67.99
72802;BME280;61891;55.818;37.084;2022-12-18T04:48:02;99057.53;;;-3.50;67.84
72802;BME280;61891;55.818;37.084;2022-12-18T04:50:28;99060.88;;;-3.48;67.69
72802;BME280;61891;55.818;37.084;2022-12-18T04:52:54;99065.31;;;-3.50;67.78
72802;BME280;61891;55.818;37.084;2022-12-18T04:55:20;99039.59;;;-3.69;67.81
72802;BME280;61891;55.818;37.084;2022-12-18T04:57:49;99002.72;;;-3.88;67.80
72802;BME280;61891;55.818;37.084;2022-12-18T05:00:15;99084.28;;;-3.49;67.66
72802;BME280;61891;55.818;37.084;2022-12-18T05:02:41;99020.16;;;-3.92;67.83
72802;BME280;61891;55.818;37.084;2022-12-18T05:05:07;99028.34;;;-3.83;67.68
72802;BME280;61891;55.818;37.084;2022-12-18T05:07:33;99075.34;;;-3.60;67.82
72802;BME280;61891;55.818;37.084;2022-12-18T05:09:59;99058.56;;;-3.68;67.73
72802;BME280;61891;55.818;37.084;2022-12-18T05:12:24;99071.75;;;-3.57;67.71
72802;BME280;61891;55.818;37.084;2022-12-18T05:14:50;99063.91;;;-3.55;67.59
72802;BME280;61891;55.818;37.084;2022-12-18T05:17:16;99075.66;;;-3.50;67.49
72802;BME280;61891;55.818;37.084;2022-12-18T05:19:42;99090.56;;;-3.53;67.46
72802;BME280;61891;55.818;37.084;2022-12-18T05:22:08;99104.34;;;-3.53;67.55
72802;BME280;61891;55.818;37.084;2022-12-18T05:24:34;99102.59;;;-3.52;67.50
72802;BME280;61891;55.818;37.084;2022-12-18T05:27:00;99079.94;;;-3.65;67.29
72802;BME280;61891;55.818;37.084;2022-12-18T05:29:25;99028.19;;;-3.96;67.37
72802;BME280;61891;55.818;37.084;2022-12-18T05:31:51;99125.22;;;-3.56;67.20
72802;BME280;61891;55.818;37.084;2022-12-18T05:34:17;99110.78;;;-3.76;67.12
72802;BME280;61891;55.818;37.084;2022-12-18T05:36:43;99111.28;;;-3.69;67.19
72802;BME280;61891;55.818;37.084;2022-12-18T05:39:09;99109.03;;;-3.75;67.20
72802;BME280;61891;55.818;37.084;2022-12-18T05:41:34;99133.41;;;-3.64;67.08
72802;BME280;61891;55.818;37.084;2022-12-18T05:44:00;99125.41;;;-3.59;67.07
72802;BME280;61891;55.818;37.084;2022-12-18T05:46:26;99127.91;;;-3.58;67.10
72802;BME280;61891;55.818;37.084;2022-12-18T05:48:52;99133.91;;;-3.57;67.15
72802;BME280;61891;55.818;37.084;2022-12-18T05:51:20;99074.13;;;-4.00;67.06
72802;BME280;61891;55.818;37.084;2022-12-18T05:53:46;99104.19;;;-3.81;67.18
72802;BME280;61891;55.818;37.084;2022-12-18T05:56:15;99114.03;;;-3.88;67.25
72802;BME280;61891;55.818;37.084;2022-12-18T05:58:41;99143.44;;;-3.73;66.97
72802;BME280;61891;55.818;37.084;2022-12-18T06:01:19;99110.03;;;-3.94;67.54
72802;BME280;61891;55.818;37.084;2022-12-18T06:03:45;99128.75;;;-3.73;67.52
72802;BME280;61891;55.818;37.084;2022-12-18T06:08:44;99156.81;;;-3.65;67.31
72802;BME280;61891;55.818;37.084;2022-12-18T06:11:10;99160.66;;;-3.72;67.20
72802;BME280;61891;55.818;37.084;2022-12-18T06:13:36;99152.94;;;-3.90;67.63
72802;BME280;61891;55.818;37.084;2022-12-18T06:16:06;99126.22;;;-4.06;67.51
72802;BME280;61891;55.818;37.084;2022-12-18T06:18:33;99178.03;;;-3.74;67.30
72802;BME280;61891;55.818;37.084;2022-12-18T06:21:02;99167.25;;;-3.82;67.28
72802;BME280;61891;55.818;37.084;2022-12-18T06:23:27;99174.25;;;-3.69;67.23
72802;BME280;61891;55.818;37.084;2022-12-18T06:25:53;99189.41;;;-3.61;67.18
72802;BME280;61891;55.818;37.084;2022-12-18T06:28:19;99186.81;;;-3.61;67.25
72802;BME280;61891;55.818;37.084;2022-12-18T06:30:47;99185.06;;;-3.61;67.12
72802;BME280;61891;55.818;37.084;2022-12-18T06:33:14;99171.59;;;-3.83;67.24
72802;BME280;61891;55.818;37.084;2022-12-18T06:35:40;99210.28;;;-3.64;66.89
72802;BME280;61891;55.818;37.084;2022-12-18T06:38:06;99199.50;;;-3.72;67.12
72802;BME280;61891;55.818;37.084;2022-12-18T06:40:31;99221.91;;;-3.55;67.04
72802;BME280;61891;55.818;37.084;2022-12-18T06:42:58;99201.31;;;-3.74;67.18
72802;BME280;61891;55.818;37.084;2022-12-18T06:45:23;99234.03;;;-3.56;66.85
72802;BME280;61891;55.818;37.084;2022-12-18T06:47:50;99221.47;;;-3.64;66.93
72802;BME280;61891;55.818;37.084;2022-12-18T06:50:16;99249.47;;;-3.54;66.89
72802;BME280;61891;55.818;37.084;2022-12-18T06:52:42;99254.41;;;-3.50;66.87
72802;BME280;61891;55.818;37.084;2022-12-18T06:55:10;99217.06;;;-3.62;67.03
72802;BME280;61891;55.818;37.084;2022-12-18T06:57:36;99254.50;;;-3.36;66.82
72802;BME280;61891;55.818;37.084;2022-12-18T07:00:04;99250.34;;;-3.38;66.80
72802;BME280;61891;55.818;37.084;2022-12-18T07:02:32;99258.28;;;-3.41;66.75
72802;BME280;61891;55.818;37.084;2022-12-18T07:04:58;99226.31;;;-3.58;66.60
72802;BME280;61891;55.818;37.084;2022-12-18T07:07:24;99236.19;;;-3.48;66.64
72802;BME280;61891;55.818;37.084;2022-12-18T07:09:50;99266.47;;;-3.33;66.63
72802;BME280;61891;55.818;37.084;2022-12-18T07:12:16;99268.97;;;-3.32;66.49
72802;BME280;61891;55.818;37.084;2022-12-18T07:14:42;99288.06;;;-3.17;66.58
72802;BME280;61891;55.818;37.084;2022-12-18T07:17:08;99286.38;;;-3.18;66.08
72802;BME280;61891;55.818;37.084;2022-12-18T07:19:34;99306.88;;;-3.13;66.16
72802;BME280;61891;55.818;37.084;2022-12-18T07:22:00;99307.53;;;-3.10;66.26
72802;BME280;61891;55.818;37.084;2022-12-18T07:24:26;99317.41;;;-3.01;66.10
72802;BME280;61891;55.818;37.084;2022-12-18T07:26:51;99297.34;;;-3.13;66.12
72802;BME280;61891;55.818;37.084;2022-12-18T07:29:17;99308.38;;;-3.09;65.76
72802;BME280;61891;55.818;37.084;2022-12-18T07:31:43;99293.91;;;-3.13;66.06
72802;BME280;61891;55.818;37.084;2022-12-18T07:34:13;99288.88;;;-3.16;65.89
72802;BME280;61891;55.818;37.084;2022-12-18T07:36:39;99296.16;;;-3.07;65.81
72802;BME280;61891;55.818;37.084;2022-12-18T07:39:05;99296.84;;;-3.04;65.55
72802;BME280;61891;55.818;37.084;2022-12-18T07:41:30;99300.44;;;-3.06;65.72
72802;BME280;61891;55.818;37.084;2022-12-18T07:44:02;99225.16;;;-3.52;66.03
72802;BME280;61891;55.818;37.084;2022-12-18T07:46:28;99309.63;;;-3.01;65.93
72802;BME280;61891;55.818;37.084;2022-12-18T07:48:54;99303.34;;;-2.97;65.92
72802;BME280;61891;55.818;37.084;2022-12-18T07:51:19;99301.78;;;-2.99;65.93
72802;BME280;61891;55.818;37.084;2022-12-18T07:53:46;99286.72;;;-3.08;65.75
72802;BME280;61891;55.818;37.084;2022-12-18T07:56:12;99316.91;;;-2.92;65.78
72802;BME280;61891;55.818;37.084;2022-12-18T07:58:38;99324.09;;;-2.81;65.91
72802;BME280;61891;55.818;37.084;2022-12-18T08:01:06;99306.38;;;-2.88;65.73
72802;BME280;61891;55.818;37.084;2022-12-18T08:03:32;99323.78;;;-2.75;65.96
72802;BME280;61891;55.818;37.084;2022-12-18T08:06:00;99315.31;;;-2.78;65.63
72802;BME280;61891;55.818;37.084;2022-12-18T08:08:25;99308.72;;;-2.84;65.63
72802;BME280;61891;55.818;37.084;2022-12-18T08:10:51;99343.69;;;-2.60;65.40
72802;BME280;61891;55.818;37.084;2022-12-18T08:13:17;99352.78;;;-2.52;65.47
72802;BME280;61891;55.818;37.084;2022-12-18T08:15:43;99354.63;;;-2.54;65.51
72802;BME280;61891;55.818;37.084;2022-12-18T08:18:08;99366.53;;;-2.50;65.57
72802;BME280;61891;55.818;37.084;2022-12-18T08:20:34;99345.78;;;-2.66;65.36
72802;BME280;61891;55.818;37.084;2022-12-18T08:23:00;99374.03;;;-2.46;65.57
72802;BME280;61891;55.818;37.084;2022-12-18T08:25:25;99367.53;;;-2.53;65.37
72802;BME280;61891;55.818;37.084;2022-12-18T08:27:51;99378.22;;;-2.43;65.20
72802;BME280;61891;55.818;37.084;2022-12-18T08:30:17;99369.53;;;-2.42;65.21
72802;BME280;61891;55.818;37.084;2022-12-18T08:32:42;99385.50;;;-2.34;65.24
72802;BME280;61891;55.818;37.084;2022-12-18T08:35:08;99385.59;;;-2.36;65.30
72802;BME280;61891;55.818;37.084;2022-12-18T08:37:34;99386.44;;;-2.35;65.29
72802;BME280;61891;55.818;37.084;2022-12-18T08:40:00;99394.22;;;-2.35;65.36
72802;BME280;61891;55.818;37.084;2022-12-18T08:42:26;99395.81;;;-2.33;65.32
72802;BME280;61891;55.818;37.084;2022-12-18T08:45:10;99391.19;;;-2.28;65.21
72802;BME280;61891;55.818;37.084;2022-12-18T08:47:36;99385.50;;;-2.34;65.03
72802;BME280;61891;55.818;37.084;2022-12-18T08:50:02;99388.84;;;-2.32;65.47
72802;BME280;61891;55.818;37.084;2022-12-18T08:52:31;99377.31;;;-2.42;65.45
72802;BME280;61891;55.818;37.084;2022-12-18T08:54:57;99400.16;;;-2.33;65.18
72802;BME280;61891;55.818;37.084;2022-12-18T08:57:23;99381.31;;;-2.37;65.42
72802;BME280;61891;55.818;37.084;2022-12-18T08:59:49;99408.34;;;-2.25;65.32
72802;BME280;61891;55.818;37.084;2022-12-18T09:02:15;99379.25;;;-2.46;65.32
72802;BME280;61891;55.818;37.084;2022-12-18T09:04:40;99402.59;;;-2.30;65.23
72802;BME280;61891;55.818;37.084;2022-12-18T09:07:06;99372.13;;;-2.42;65.58
72802;BME280;61891;55.818;37.084;2022-12-18T09:09:32;99400.81;;;-2.30;65.45
72802;BME280;61891;55.818;37.084;2022-12-18T09:11:58;99401.34;;;-2.39;65.30
72802;BME280;61891;55.818;37.084;2022-12-18T09:14:23;99406.28;;;-2.34;65.18
72802;BME280;61891;55.818;37.084;2022-12-18T09:16:49;99418.25;;;-2.32;65.36
72802;BME280;61891;55.818;37.084;2022-12-18T09:19:15;99400.84;;;-2.45;65.07
72802;BME280;61891;55.818;37.084;2022-12-18T09:21:40;99419.41;;;-2.37;65.31
72802;BME280;61891;55.818;37.084;2022-12-18T09:24:13;99435.56;;;-2.32;65.24
72802;BME280;61891;55.818;37.084;2022-12-18T09:26:39;99435.91;;;-2.38;65.35
72802;BME280;61891;55.818;37.084;2022-12-18T09:29:05;99452.31;;;-2.38;65.45
72802;BME280;61891;55.818;37.084;2022-12-18T09:31:33;99461.63;;;-2.34;65.41
72802;BME280;61891;55.818;37.084;2022-12-18T09:33:59;99451.06;;;-2.46;65.48
72802;BME280;61891;55.818;37.084;2022-12-18T09:36:25;99447.22;;;-2.55;65.56
72802;BME280;61891;55.818;37.084;2022-12-18T09:38:50;99463.44;;;-2.51;65.50
72802;BME280;61891;55.818;37.084;2022-12-18T09:41:51;99489.16;;;-2.31;65.49
72802;BME280;61891;55.818;37.084;2022-12-18T09:44:37;99472.34;;;-2.40;65.47
72802;BME280;61891;55.818;37.084;2022-12-18T09:47:11;99492.69;;;-2.32;65.52
72802;BME280;61891;55.818;37.084;2022-12-18T09:49:47;99475.00;;;-2.41;65.42
72802;BME280;61891;55.818;37.084;2022-12-18T09:52:41;99484.72;;;-2.29;65.50
72802;BME280;61891;55.818;37.084;2022-12-18T09:57:57;99469.72;;;-2.55;65.39
72802;BME280;61891;55.818;37.084;2022-12-18T10:00:25;99489.91;;;-2.45;65.51
72802;BME280;61891;55.818;37.084;2022-12-18T10:02:53;99433.44;;;-2.88;65.48
72802;BME280;61891;55.818;37.084;2022-12-18T10:08:06;99510.06;;;-2.50;65.64
72802;BME280;61891;55.818;37.084;2022-12-18T10:10:49;99500.44;;;-2.48;65.43
72802;BME280;61891;55.818;37.084;2022-12-18T10:13:38;99515.78;;;-2.43;65.72
72802;BME280;61891;55.818;37.084;2022-12-18T10:16:22;99509.06;;;-2.47;65.62
72802;BME280;61891;55.818;37.084;2022-12-18T10:27:14;99437.28;;;-2.96;65.86
72802;BME280;61891;55.818;37.084;2022-12-18T10:29:42;99519.44;;;-2.47;65.72
72802;BME280;61891;55.818;37.084;2022-12-18T10:32:18;99478.63;;;-2.77;65.93
72802;BME280;61891;55.818;37.084;2022-12-18T10:34:48;99523.88;;;-2.49;65.73
72802;BME280;61891;55.818;37.084;2022-12-18T10:37:19;99484.00;;;-2.80;65.64
72802;BME280;61891;55.818;37.084;2022-12-18T10:39:47;99536.78;;;-2.48;65.95
72802;BME280;61891;55.818;37.084;2022-12-18T10:42:30;99541.81;;;-2.45;65.94
72802;BME280;61891;55.818;37.084;2022-12-18T10:45:26;99529.56;;;-2.58;65.89
72802;BME280;61891;55.818;37.084;2022-12-18T10:47:52;99546.91;;;-2.43;66.05
72802;BME280;61891;55.818;37.084;2022-12-18T10:50:35;99480.56;;;-2.80;66.08
72802;BME280;61891;55.818;37.084;2022-12-18T10:53:04;99550.28;;;-2.41;65.90
72802;BME280;61891;55.818;37.084;2022-12-18T10:55:33;99536.09;;;-2.51;66.00
72802;BME280;61891;55.818;37.084;2022-12-18T11:01:12;99564.16;;;-2.42;66.06
72802;BME280;61891;55.818;37.084;2022-12-18T11:06:20;99516.72;;;-2.77;66.01
72802;BME280;61891;55.818;37.084;2022-12-18T11:09:19;99545.81;;;-2.55;65.65
72802;BME280;61891;55.818;37.084;2022-12-18T11:11:54;99551.50;;;-2.48;65.87
72802;BME280;61891;55.818;37.084;2022-12-18T11:14:27;99562.81;;;-2.49;65.74
72802;BME280;61891;55.818;37.084;2022-12-18T11:16:55;99552.31;;;-2.64;66.09
72802;BME280;61891;55.818;37.084;2022-12-18T11:19:30;99575.25;;;-2.56;65.79
72802;BME280;61891;55.818;37.084;2022-12-18T11:21:56;99569.41;;;-2.60;65.91
72802;BME280;61891;55.818;37.084;2022-12-18T11:24:28;99539.75;;;-2.71;66.29
72802;BME280;61891;55.818;37.084;2022-12-18T11:26:57;99534.19;;;-2.81;65.82
72802;BME280;61891;55.818;37.084;2022-12-18T11:29:33;99577.09;;;-2.58;65.90
72802;BME280;61891;55.818;37.084;2022-12-18T11:34:44;99581.97;;;-2.52;65.89
72802;BME280;61891;55.818;37.084;2022-12-18T11:37:13;99504.00;;;-2.99;66.03
72802;BME280;61891;55.818;37.084;2022-12-18T11:40:03;99599.91;;;-2.47;65.39
72802;BME280;61891;55.818;37.084;2022-12-18T11:42:59;99605.84;;;-2.45;65.88
72802;BME280;61891;55.818;37.084;2022-12-18T11:45:33;99571.72;;;-2.71;65.83
72802;BME280;61891;55.818;37.084;2022-12-18T11:50:48;99615.88;;;-2.55;66.01
72802;BME280;61891;55.818;37.084;2022-12-18T11:53:15;99631.50;;;-2.56;66.18
72802;BME280;61891;55.818;37.084;2022-12-18T11:58:48;99631.81;;;-2.63;65.96
72802;BME280;61891;55.818;37.084;2022-12-18T12:09:29;99661.56;;;-2.52;66.23
72802;BME280;61891;55.818;37.084;2022-12-18T12:15:12;99642.06;;;-2.77;66.22
72802;BME280;61891;55.818;37.084;2022-12-18T12:17:50;99675.53;;;-2.55;66.17
72802;BME280;61891;55.818;37.084;2022-12-18T12:20:49;99682.50;;;-2.55;66.21
72802;BME280;61891;55.818;37.084;2022-12-18T12:37:27;99721.41;;;-2.55;66.21
72802;BME280;61891;55.818;37.084;2022-12-18T12:39:56;99716.38;;;-2.58;66.32
72802;BME280;61891;55.818;37.084;2022-12-18T12:42:37;99636.84;;;-3.11;66.04
72802;BME280;61891;55.818;37.084;2022-12-18T12:45:30;99696.06;;;-2.85;66.20
72802;BME280;61891;55.818;37.084;2022-12-18T12:48:01;99738.19;;;-2.63;66.38
72802;BME280;61891;55.818;37.084;2022-12-18T12:50:27;99731.69;;;-2.71;66.39
72802;BME280;61891;55.818;37.084;2022-12-18T12:52:56;99742.09;;;-2.71;66.43
72802;BME280;61891;55.818;37.084;2022-12-18T12:55:25;99753.84;;;-2.64;66.40
72802;BME280;61891;55.818;37.084;2022-12-18T13:00:29;99689.16;;;-3.03;66.36
72802;BME280;61891;55.818;37.084;2022-12-18T13:06:04;99761.31;;;-2.75;66.29
72802;BME280;61891;55.818;37.084;2022-12-18T13:08:56;99786.88;;;-2.68;66.60
72802;BME280;61891;55.818;37.084;2022-12-18T13:11:51;99791.28;;;-2.70;66.42
72802;BME280;61891;55.818;37.084;2022-12-18T13:14:37;99722.69;;;-3.17;66.39
72802;BME280;61891;55.818;37.084;2022-12-18T13:19:51;99811.56;;;-2.78;66.25
72802;BME280;61891;55.818;37.084;2022-12-18T13:22:35;99788.66;;;-2.87;66.39
72802;BME280;61891;55.818;37.084;2022-12-18T13:25:02;99817.88;;;-2.83;66.20
72802;BME280;61891;55.818;37.084;2022-12-18T13:38:21;99839.69;;;-3.06;66.62
72802;BME280;61891;55.818;37.084;2022-12-18T13:45:58;99782.22;;;-3.53;66.42
72802;BME280;61891;55.818;37.084;2022-12-18T13:48:26;99812.13;;;-3.46;66.50
72802;BME280;61891;55.818;37.084;2022-12-18T13:51:16;99861.06;;;-3.20;66.28
72802;BME280;61891;55.818;37.084;2022-12-18T13:53:53;99885.09;;;-3.16;66.50
72802;BME280;61891;55.818;37.084;2022-12-18T13:56:25;99881.78;;;-3.20;66.59
72802;BME280;61891;55.818;37.084;2022-12-18T13:59:18;99882.69;;;-3.21;66.29
72802;BME280;61891;55.818;37.084;2022-12-18T14:01:55;99892.34;;;-3.25;66.66
72802;BME280;61891;55.818;37.084;2022-12-18T14:06:52;99910.31;;;-3.20;66.50
72802;BME280;61891;55.818;37.084;2022-12-18T14:09:26;99894.31;;;-3.30;66.42
72802;BME280;61891;55.818;37.084;2022-12-18T14:11:53;99909.19;;;-3.14;66.33
72802;BME280;61891;55.818;37.084;2022-12-18T14:14:48;99905.53;;;-3.29;66.59
72802;BME280;61891;55.818;37.084;2022-12-18T14:17:15;99901.78;;;-3.42;66.24
72802;BME280;61891;55.818;37.084;2022-12-18T14:19:45;99931.31;;;-3.26;66.55
72802;BME280;61891;55.818;37.084;2022-12-18T14:22:18;99937.34;;;-3.26;66.43
72802;BME280;61891;55.818;37.084;2022-12-18T14:24:45;99942.53;;;-3.26;66.46
72802;BME280;61891;55.818;37.084;2022-12-18T14:27:22;99921.53;;;-3.40;66.41
72802;BME280;61891;55.818;37.084;2022-12-18T14:29:48;99953.16;;;-3.32;66.47
72802;BME280;61891;55.818;37.084;2022-12-18T14:32:19;99927.03;;;-3.47;66.42
72802;BME280;61891;55.818;37.084;2022-12-18T14:34:46;99953.16;;;-3.32;66.26
72802;BME280;61891;55.818;37.084;2022-12-18T14:37:14;99912.28;;;-3.66;66.14
72802;BME280;61891;55.818;37.084;2022-12-18T14:39:40;99971.63;;;-3.39;66.52
72802;BME280;61891;55.818;37.084;2022-12-18T14:42:10;99921.53;;;-3.80;66.19
72802;BME280;61891;55.818;37.084;2022-12-18T14:44:36;99966.59;;;-3.64;65.93
72802;BME280;61891;55.818;37.084;2022-12-18T14:47:02;99986.44;;;-3.63;65.97
72802;BME280;61891;55.818;37.084;2022-12-18T14:49:33;99984.81;;;-3.66;66.22
72802;BME280;61891;55.818;37.084;2022-12-18T14:52:13;99989.00;;;-3.63;66.56
72802;BME280;61891;55.818;37.084;2022-12-18T14:54:46;99985.66;;;-3.65;66.40